createdAt,value
2018-10-09T00:01:54.696Z,8.01
2018-10-09T00:04:23.198Z,7.99
2018-10-09T00:06:51.605Z,7.99
2018-10-09T00:09:20.049Z,7.97
2018-10-09T00:11:48.469Z,7.97
2018-10-09T00:14:16.896Z,7.96
2018-10-09T00:16:45.386Z,7.99
2018-10-09T00:19:13.807Z,8.00
2018-10-09T00:21:42.244Z,8.06
2018-10-09T00:24:10.650Z,8.00
2018-10-09T00:26:39.096Z,7.99
2018-10-09T00:29:07.497Z,7.98
2018-10-09T00:31:36.515Z,7.89
2018-10-09T00:34:04.960Z,7.87
2018-10-09T00:36:33.369Z,7.83
2018-10-09T00:39:01.822Z,7.81
2018-10-09T00:41:30.236Z,7.82
2018-10-09T00:43:58.663Z,7.87
2018-10-09T00:46:27.114Z,7.85
2018-10-09T00:48:55.526Z,7.83
2018-10-09T00:51:23.958Z,7.83
2018-10-09T00:53:52.449Z,7.77
2018-10-09T00:56:20.893Z,7.76
2018-10-09T00:58:49.367Z,7.73
2018-10-09T01:01:17.818Z,7.71
2018-10-09T01:03:46.287Z,7.71
2018-10-09T01:06:14.705Z,7.63
2018-10-09T01:08:43.124Z,7.59
2018-10-09T01:11:12.004Z,7.54
2018-10-09T01:13:40.500Z,7.50
2018-10-09T01:16:09.453Z,7.57
2018-10-09T01:18:37.880Z,7.60
2018-10-09T01:21:06.713Z,7.60
2018-10-09T01:23:35.147Z,7.59
2018-10-09T01:26:03.600Z,7.59
2018-10-09T01:28:32.044Z,7.61
2018-10-09T01:31:01.417Z,7.66
2018-10-09T01:33:29.854Z,7.62
2018-10-09T01:35:58.880Z,7.60
2018-10-09T01:38:27.306Z,7.42
2018-10-09T01:40:55.705Z,7.39
2018-10-09T01:43:24.146Z,7.39
2018-10-09T01:45:52.621Z,7.39
2018-10-09T01:48:21.052Z,7.36
2018-10-09T01:50:49.503Z,7.36
2018-10-09T01:53:17.944Z,7.31
2018-10-09T01:55:46.485Z,7.28
2018-10-09T01:58:14.899Z,7.26
2018-10-09T02:00:43.346Z,7.24
2018-10-09T02:03:11.802Z,7.20
2018-10-09T02:05:40.235Z,7.24
2018-10-09T02:08:08.660Z,7.29
2018-10-09T02:10:37.114Z,7.28
2018-10-09T02:13:05.580Z,7.27
2018-10-09T02:15:34.009Z,7.26
2018-10-09T02:18:02.462Z,7.30
2018-10-09T02:20:31.090Z,7.24
2018-10-09T02:22:59.527Z,7.39
2018-10-09T02:25:27.977Z,7.44
2018-10-09T02:27:56.395Z,7.48
2018-10-09T02:30:24.836Z,7.46
2018-10-09T02:32:53.229Z,7.41
2018-10-09T02:35:21.686Z,7.34
2018-10-09T02:37:50.077Z,7.28
2018-10-09T02:40:18.533Z,7.20
2018-10-09T02:42:47.000Z,7.13
2018-10-09T02:45:15.387Z,7.04
2018-10-09T02:47:43.844Z,7.00
2018-10-09T02:50:12.283Z,7.05
2018-10-09T02:52:41.024Z,7.14
2018-10-09T02:55:09.499Z,7.21
2018-10-09T02:57:38.065Z,7.27
2018-10-09T03:00:06.626Z,7.29
2018-10-09T03:02:35.028Z,7.21
2018-10-09T03:05:03.485Z,7.16
2018-10-09T03:07:32.932Z,7.14
2018-10-09T03:10:02.458Z,7.05
2018-10-09T03:12:30.894Z,7.01
2018-10-09T03:14:59.577Z,6.96
2018-10-09T03:17:28.049Z,6.96
2018-10-09T03:19:56.486Z,6.92
2018-10-09T03:22:25.085Z,6.91
2018-10-09T03:24:53.500Z,6.93
2018-10-09T03:27:21.932Z,6.90
2018-10-09T03:29:50.351Z,6.86
2018-10-09T03:32:18.775Z,6.88
2018-10-09T03:34:47.264Z,6.88
2018-10-09T03:37:17.032Z,6.89
2018-10-09T03:39:45.481Z,6.85
2018-10-09T03:42:13.903Z,6.79
2018-10-09T03:44:42.333Z,6.76
2018-10-09T03:47:11.675Z,6.79
2018-10-09T03:49:40.109Z,6.81
2018-10-09T03:52:08.541Z,6.79
2018-10-09T03:54:36.945Z,6.80
2018-10-09T03:57:05.476Z,6.77
2018-10-09T03:59:33.934Z,6.81
2018-10-09T04:02:02.320Z,6.78
2018-10-09T04:04:30.741Z,6.81
2018-10-09T04:06:59.217Z,6.85
2018-10-09T04:09:27.587Z,6.85
2018-10-09T04:11:56.120Z,6.87
2018-10-09T04:14:24.545Z,6.87
2018-10-09T04:16:53.039Z,6.87
2018-10-09T04:19:21.471Z,6.87
2018-10-09T04:21:49.888Z,6.86
2018-10-09T04:24:18.312Z,6.81
2018-10-09T04:26:46.775Z,6.78
2018-10-09T04:29:15.219Z,6.72
2018-10-09T04:31:43.665Z,6.67
2018-10-09T04:34:12.141Z,6.66
2018-10-09T04:36:40.604Z,6.66
2018-10-09T04:39:10.136Z,6.62
2018-10-09T04:41:38.673Z,6.63
2018-10-09T04:44:07.432Z,6.66
2018-10-09T04:46:35.863Z,6.67
2018-10-09T04:49:04.361Z,6.67
2018-10-09T04:51:33.095Z,6.67
2018-10-09T04:54:01.549Z,6.68
2018-10-09T04:56:30.764Z,6.70
2018-10-09T04:58:59.243Z,6.71
2018-10-09T05:01:27.703Z,6.69
2018-10-09T05:03:56.467Z,6.72
2018-10-09T05:06:24.917Z,6.75
2018-10-09T05:08:53.355Z,6.72
2018-10-09T05:11:22.330Z,6.69
2018-10-09T05:13:51.757Z,6.66
2018-10-09T05:16:20.446Z,6.66
2018-10-09T05:18:48.956Z,6.62
2018-10-09T05:21:17.408Z,6.56
2018-10-09T05:23:45.832Z,6.58
2018-10-09T05:26:14.389Z,6.52
2018-10-09T05:28:42.833Z,6.49
2018-10-09T05:31:11.309Z,6.52
2018-10-09T05:33:39.705Z,6.53
2018-10-09T05:36:10.045Z,6.54
2018-10-09T05:38:38.497Z,6.48
2018-10-09T05:41:07.445Z,6.43
2018-10-09T05:43:35.983Z,6.38
2018-10-09T05:48:50.182Z,6.34
2018-10-09T05:51:19.580Z,6.32
2018-10-09T05:53:48.003Z,6.37
2018-10-09T05:56:16.514Z,6.41
2018-10-09T05:58:44.930Z,6.42
2018-10-09T06:01:13.361Z,6.45
2018-10-09T06:03:41.840Z,6.47
2018-10-09T06:06:10.514Z,6.47
2018-10-09T06:08:38.970Z,6.46
2018-10-09T06:11:07.432Z,6.42
2018-10-09T06:13:35.868Z,6.47
2018-10-09T06:16:04.373Z,6.44
2018-10-09T06:18:32.794Z,6.59
2018-10-09T06:21:01.224Z,6.61
2018-10-09T06:23:29.664Z,6.55
2018-10-09T06:25:58.101Z,6.59
2018-10-09T06:28:26.556Z,6.61
2018-10-09T06:30:55.302Z,6.62
2018-10-09T06:33:23.760Z,6.62
2018-10-09T06:35:52.280Z,6.59
2018-10-09T06:38:20.885Z,6.57
2018-10-09T06:40:49.339Z,6.59
2018-10-09T06:43:17.795Z,6.62
2018-10-09T06:45:46.195Z,6.65
2018-10-09T06:48:14.682Z,6.72
2018-10-09T06:50:43.164Z,6.80
2018-10-09T06:53:12.339Z,6.86
2018-10-09T06:55:40.758Z,6.92
2018-10-09T06:58:09.136Z,6.99
2018-10-09T07:00:38.332Z,7.06
2018-10-09T07:03:06.788Z,7.13
2018-10-09T07:05:35.265Z,7.20
2018-10-09T07:08:03.778Z,7.27
2018-10-09T07:10:32.166Z,7.35
2018-10-09T07:13:00.618Z,7.42
2018-10-09T07:15:29.036Z,7.48
2018-10-09T07:17:57.469Z,7.53
2018-10-09T07:20:26.536Z,7.59
2018-10-09T07:22:54.973Z,7.65
2018-10-09T07:25:23.389Z,7.70
2018-10-09T07:27:51.940Z,7.74
2018-10-09T07:30:20.405Z,7.79
2018-10-09T07:32:49.656Z,7.84
2018-10-09T07:35:18.109Z,7.89
2018-10-09T07:37:46.589Z,7.95
2018-10-09T07:40:14.965Z,8.01
2018-10-09T07:42:43.392Z,8.05
2018-10-09T07:45:11.805Z,8.10
2018-10-09T07:47:40.280Z,8.10
2018-10-09T07:50:08.799Z,8.13
2018-10-09T07:52:38.193Z,8.17
2018-10-09T07:55:06.633Z,8.21
2018-10-09T07:57:35.089Z,8.24
2018-10-09T08:00:03.628Z,8.29
2018-10-09T08:02:32.078Z,8.33
2018-10-09T08:05:00.607Z,8.38
2018-10-09T08:07:29.018Z,8.41
2018-10-09T08:09:57.528Z,8.45
2018-10-09T08:12:26.014Z,8.46
2018-10-09T08:14:54.437Z,8.47
2018-10-09T08:17:22.893Z,8.48
2018-10-09T08:19:51.345Z,8.52
2018-10-09T08:22:19.858Z,8.57
2018-10-09T08:24:50.227Z,8.63
2018-10-09T08:27:18.660Z,8.80
2018-10-09T08:29:47.084Z,8.86
2018-10-09T08:32:15.546Z,8.94
2018-10-09T08:34:43.924Z,9.03
2018-10-09T08:37:12.349Z,9.19
2018-10-09T08:39:40.819Z,9.27
2018-10-09T08:42:09.282Z,9.31
2018-10-09T08:44:37.705Z,9.32
2018-10-09T08:47:06.326Z,9.38
2018-10-09T08:49:34.824Z,9.48
2018-10-09T08:52:03.291Z,9.55
2018-10-09T08:54:31.919Z,9.82
2018-10-09T08:57:00.295Z,9.86
2018-10-09T08:59:28.791Z,9.87
2018-10-09T09:01:57.235Z,9.99
2018-10-09T09:04:25.665Z,10.02
2018-10-09T09:06:54.095Z,10.07
2018-10-09T09:09:22.517Z,10.15
2018-10-09T09:11:50.900Z,10.20
2018-10-09T09:14:19.309Z,10.26
2018-10-09T09:16:47.932Z,10.37
2018-10-09T09:19:16.355Z,10.46
2018-10-09T09:21:44.916Z,10.64
2018-10-09T09:24:14.073Z,10.73
2018-10-09T09:26:42.649Z,10.80
2018-10-09T09:29:11.035Z,10.89
2018-10-09T09:31:39.485Z,10.97
2018-10-09T09:34:07.929Z,11.01
2018-10-09T09:36:36.412Z,11.01
2018-10-09T09:39:05.973Z,10.96
2018-10-09T09:41:34.482Z,10.92
2018-10-09T09:44:03.148Z,11.00
2018-10-09T09:46:31.588Z,10.99
2018-10-09T09:49:00.098Z,11.04
2018-10-09T09:51:28.564Z,11.06
2018-10-09T09:53:57.034Z,11.13
2018-10-09T09:56:25.516Z,11.18
2018-10-09T09:58:54.542Z,11.23
2018-10-09T10:01:54.386Z,11.28
2018-10-09T10:04:22.823Z,11.34
2018-10-09T10:06:51.248Z,11.44
2018-10-09T10:09:19.869Z,11.50
2018-10-09T10:11:48.262Z,11.63
2018-10-09T10:14:16.744Z,11.75
2018-10-09T10:16:45.153Z,11.70
2018-10-09T10:19:13.631Z,11.67
2018-10-09T10:21:42.037Z,11.69
2018-10-09T10:24:10.478Z,11.84
2018-10-09T10:26:38.884Z,11.92
2018-10-09T10:29:07.370Z,12.11
2018-10-09T10:31:36.469Z,12.22
2018-10-09T10:34:04.993Z,12.24
2018-10-09T10:36:33.541Z,12.25
2018-10-09T10:39:01.996Z,12.29
2018-10-09T10:41:30.471Z,12.28
2018-10-09T10:43:58.923Z,12.23
2018-10-09T10:46:31.518Z,12.27
2018-10-09T10:49:05.687Z,12.29
2018-10-09T10:51:34.445Z,12.29
2018-10-09T10:54:02.906Z,12.47
2018-10-09T10:56:31.392Z,12.51
2018-10-09T10:58:59.883Z,12.43
2018-10-09T11:01:28.367Z,12.43
2018-10-09T11:03:57.251Z,12.46
2018-10-09T11:06:25.755Z,12.47
2018-10-09T11:08:54.216Z,12.59
2018-10-09T11:11:22.853Z,12.76
2018-10-09T11:13:51.346Z,12.69
2018-10-09T11:16:20.094Z,12.84
2018-10-09T11:18:48.544Z,13.03
2018-10-09T11:21:17.123Z,13.05
2018-10-09T11:23:46.354Z,12.98
2018-10-09T11:26:14.800Z,12.86
2018-10-09T11:28:43.244Z,12.79
2018-10-09T11:31:11.685Z,12.82
2018-10-09T11:33:40.112Z,12.81
2018-10-09T11:36:08.525Z,12.75
2018-10-09T11:38:36.948Z,12.78
2018-10-09T11:41:05.777Z,12.81
2018-10-09T11:43:34.224Z,12.87
2018-10-09T11:46:02.678Z,12.88
2018-10-09T11:48:31.080Z,12.87
2018-10-09T11:50:59.546Z,12.93
2018-10-09T11:53:28.109Z,13.09
2018-10-09T11:55:56.549Z,13.32
2018-10-09T11:58:25.042Z,13.48
2018-10-09T12:00:55.712Z,13.44
2018-10-09T12:03:24.225Z,13.51
2018-10-09T12:05:52.756Z,13.63
2018-10-09T12:08:21.175Z,13.62
2018-10-09T12:10:49.598Z,13.62
2018-10-09T12:13:18.069Z,13.51
2018-10-09T12:15:46.557Z,13.49
2018-10-09T12:18:15.084Z,13.46
2018-10-09T12:20:43.577Z,13.48
2018-10-09T12:23:12.069Z,13.56
2018-10-09T12:25:40.860Z,13.66
2018-10-09T12:28:09.326Z,13.82
2018-10-09T12:30:37.772Z,13.84
2018-10-09T12:33:06.251Z,13.83
2018-10-09T12:35:34.746Z,13.84
2018-10-09T12:38:03.206Z,13.91
2018-10-09T12:40:31.675Z,14.08
2018-10-09T12:43:00.620Z,14.06
2018-10-09T12:45:29.109Z,14.10
2018-10-09T12:47:57.620Z,14.15
2018-10-09T12:50:26.100Z,14.55
2018-10-09T12:52:55.119Z,15.48
2018-10-09T12:55:23.515Z,16.12
2018-10-09T12:57:52.049Z,17.01
2018-10-09T13:00:20.924Z,17.42
2018-10-09T13:02:49.433Z,17.77
2018-10-09T13:05:17.876Z,18.23
2018-10-09T13:07:46.363Z,18.56
2018-10-09T13:10:14.861Z,18.75
2018-10-09T13:12:43.468Z,18.93
2018-10-09T13:15:11.944Z,18.52
2018-10-09T13:17:41.012Z,17.81
2018-10-09T13:20:09.521Z,17.27
2018-10-09T13:22:38.126Z,16.86
2018-10-09T13:25:06.791Z,16.58
2018-10-09T13:27:35.244Z,16.33
2018-10-09T13:30:03.712Z,16.15
2018-10-09T13:32:32.157Z,16.12
2018-10-09T13:35:00.653Z,16.32
2018-10-09T13:37:29.114Z,16.41
2018-10-09T13:39:57.583Z,16.47
2018-10-09T13:42:26.040Z,16.39
2018-10-09T13:44:54.509Z,16.34
2018-10-09T13:47:23.150Z,16.27
2018-10-09T13:49:51.669Z,16.41
2018-10-09T13:52:20.127Z,16.60
2018-10-09T13:54:48.629Z,16.47
2018-10-09T13:57:17.494Z,16.28
2018-10-09T13:59:45.920Z,16.06
2018-10-09T14:02:14.415Z,16.02
2018-10-09T14:04:43.185Z,15.94
2018-10-09T14:07:11.624Z,15.94
2018-10-09T14:09:40.044Z,15.85
2018-10-09T14:12:08.508Z,15.92
2018-10-09T14:14:37.202Z,15.99
2018-10-09T14:17:05.681Z,15.67
2018-10-09T14:19:34.117Z,15.71
2018-10-09T14:22:02.640Z,15.63
2018-10-09T14:24:31.093Z,15.54
2018-10-09T14:26:59.539Z,15.54
2018-10-09T14:29:27.986Z,15.48
2018-10-09T14:31:56.395Z,15.50
2018-10-09T14:34:24.875Z,15.46
2018-10-09T14:36:53.313Z,15.44
2018-10-09T14:39:22.707Z,15.46
2018-10-09T14:41:51.923Z,15.40
2018-10-09T14:44:20.373Z,15.39
2018-10-09T14:46:49.772Z,15.42
2018-10-09T14:49:19.595Z,15.39
2018-10-09T14:51:48.061Z,15.39
2018-10-09T14:54:16.525Z,15.40
2018-10-09T14:56:44.939Z,15.52
2018-10-09T14:59:13.416Z,15.72
2018-10-09T15:01:41.953Z,15.83
2018-10-09T15:04:10.415Z,16.09
2018-10-09T15:06:38.895Z,16.24
2018-10-09T15:09:11.667Z,16.34
2018-10-09T15:11:40.136Z,16.34
2018-10-09T15:14:08.658Z,16.51
2018-10-09T15:16:37.145Z,16.55
2018-10-09T15:19:05.936Z,16.39
2018-10-09T15:21:34.362Z,16.19
2018-10-09T15:24:02.911Z,16.19
2018-10-09T15:26:31.453Z,16.15
2018-10-09T15:29:00.172Z,16.22
2018-10-09T15:31:28.704Z,16.34
2018-10-09T15:33:57.128Z,16.24
2018-10-09T15:36:25.627Z,16.14
2018-10-09T15:38:54.086Z,16.11
2018-10-09T15:41:22.614Z,16.02
2018-10-09T15:43:51.082Z,16.08
2018-10-09T15:46:19.532Z,16.00
2018-10-09T15:48:48.581Z,16.02
2018-10-09T15:51:17.116Z,15.97
2018-10-09T15:53:45.662Z,15.89
2018-10-09T15:56:14.138Z,15.87
2018-10-09T15:58:42.557Z,15.88
2018-10-09T16:01:11.017Z,15.86
2018-10-09T16:03:39.471Z,15.76
2018-10-09T16:06:08.633Z,15.69
2018-10-09T16:08:37.060Z,15.61
2018-10-09T16:11:05.464Z,15.61
2018-10-09T16:13:33.938Z,15.67
2018-10-09T16:16:02.394Z,15.76
2018-10-09T16:18:30.875Z,15.62
2018-10-09T16:20:59.276Z,15.50
2018-10-09T16:23:27.740Z,15.38
2018-10-09T16:25:56.234Z,15.27
2018-10-09T16:28:24.621Z,15.20
2018-10-09T16:30:53.906Z,15.15
2018-10-09T16:33:22.362Z,15.08
2018-10-09T16:35:50.877Z,15.01
2018-10-09T16:38:19.337Z,14.98
2018-10-09T16:40:47.834Z,14.91
2018-10-09T16:43:16.300Z,14.85
2018-10-09T16:45:44.814Z,14.78
2018-10-09T16:48:13.314Z,14.72
2018-10-09T16:50:42.099Z,14.67
2018-10-09T16:53:10.532Z,14.63
2018-10-09T16:55:39.113Z,14.56
2018-10-09T16:58:07.600Z,14.52
2018-10-09T17:00:36.169Z,14.49
2018-10-09T17:03:04.542Z,14.45
2018-10-09T17:05:33.417Z,14.41
2018-10-09T17:08:02.215Z,14.36
2018-10-09T17:10:30.628Z,14.31
2018-10-09T17:12:59.030Z,14.28
2018-10-09T17:15:27.574Z,14.24
2018-10-09T17:17:56.381Z,14.24
2018-10-09T17:20:24.836Z,14.24
2018-10-09T17:22:53.400Z,14.29
2018-10-09T17:25:21.870Z,14.27
2018-10-09T17:27:50.677Z,14.27
2018-10-09T17:30:19.146Z,14.20
2018-10-09T17:32:47.625Z,14.14
2018-10-09T17:35:16.094Z,14.08
2018-10-09T17:37:45.576Z,14.00
2018-10-09T17:40:14.094Z,13.97
2018-10-09T17:42:42.524Z,13.91
2018-10-09T17:45:11.077Z,13.87
2018-10-09T17:47:39.529Z,13.82
2018-10-09T17:50:08.327Z,13.81
2018-10-09T17:52:36.738Z,13.78
2018-10-09T17:55:05.463Z,13.75
2018-10-09T17:57:34.285Z,13.72
2018-10-09T18:00:02.834Z,13.67
2018-10-09T18:02:31.329Z,13.65
2018-10-09T18:04:59.742Z,13.59
2018-10-09T18:07:28.245Z,13.55
2018-10-09T18:09:56.757Z,13.50
2018-10-09T18:12:25.283Z,13.49
2018-10-09T18:14:53.713Z,13.48
2018-10-09T18:17:22.180Z,13.42
2018-10-09T18:19:50.653Z,13.40
2018-10-09T18:22:19.205Z,13.38
2018-10-09T18:24:47.674Z,13.32
2018-10-09T18:27:16.104Z,13.27
2018-10-09T18:29:44.617Z,13.25
2018-10-09T18:32:13.128Z,13.20
2018-10-09T18:34:41.605Z,13.20
2018-10-09T18:37:10.093Z,13.18
2018-10-09T18:39:38.573Z,13.17
2018-10-09T18:42:08.397Z,13.14
2018-10-09T18:44:37.506Z,13.11
2018-10-09T18:47:10.201Z,13.06
2018-10-09T18:49:38.636Z,12.99
2018-10-09T18:52:07.105Z,12.92
2018-10-09T18:54:35.556Z,12.91
2018-10-09T18:57:04.001Z,12.85
2018-10-09T18:59:32.445Z,12.82
2018-10-09T19:02:01.050Z,12.78
2018-10-09T19:04:29.578Z,12.76
2018-10-09T19:06:58.104Z,12.75
2018-10-09T19:09:26.695Z,12.72
2018-10-09T19:11:55.247Z,12.67
2018-10-09T19:14:23.716Z,12.61
2018-10-09T19:16:52.196Z,12.59
2018-10-09T19:19:20.681Z,12.55
2018-10-09T19:21:49.205Z,12.54
2018-10-09T19:24:18.129Z,12.52
2018-10-09T19:26:46.789Z,12.51
2018-10-09T19:29:16.187Z,12.53
2018-10-09T19:31:44.670Z,12.52
2018-10-09T19:34:13.237Z,12.55
2018-10-09T19:36:41.748Z,12.58
2018-10-09T19:39:11.860Z,12.55
2018-10-09T19:41:40.385Z,12.53
2018-10-09T19:44:08.839Z,12.54
2018-10-09T19:46:38.003Z,12.51
2018-10-09T19:49:07.175Z,12.49
2018-10-09T19:51:35.756Z,12.44
2018-10-09T19:54:04.285Z,12.44
2018-10-09T19:56:32.923Z,12.43
2018-10-09T19:59:01.726Z,12.43
2018-10-09T20:01:30.259Z,12.40
2018-10-09T20:03:58.761Z,12.37
2018-10-09T20:06:27.336Z,12.33
2018-10-09T20:08:56.541Z,12.31
2018-10-09T20:11:25.735Z,12.28
2018-10-09T20:13:54.172Z,12.20
2018-10-09T20:16:22.671Z,12.24
2018-10-09T20:18:53.501Z,12.20
2018-10-09T20:21:22.002Z,12.18
2018-10-09T20:23:51.056Z,12.12
2018-10-09T20:26:19.632Z,12.09
2018-10-09T20:28:48.119Z,12.05
2018-10-09T20:31:16.685Z,12.06
2018-10-09T20:33:45.906Z,12.07
2018-10-09T20:36:14.400Z,12.03
2018-10-09T20:38:44.597Z,11.96
2018-10-09T20:41:13.849Z,11.93
2018-10-09T20:43:42.880Z,11.91
2018-10-09T20:46:12.481Z,11.94
2018-10-09T20:48:40.994Z,11.92
2018-10-09T20:51:09.457Z,11.93
2018-10-09T20:53:37.984Z,11.88
2018-10-09T20:56:06.425Z,11.85
2018-10-09T20:58:34.994Z,11.83
2018-10-09T21:01:03.470Z,11.81
2018-10-09T21:03:32.097Z,11.80
2018-10-09T21:06:00.615Z,11.78
2018-10-09T21:08:29.071Z,11.79
2018-10-09T21:10:57.536Z,11.74
2018-10-09T21:13:26.028Z,11.72
2018-10-09T21:15:54.457Z,11.65
2018-10-09T21:18:22.945Z,11.61
2018-10-09T21:20:51.507Z,11.60
2018-10-09T21:23:19.944Z,11.60
2018-10-09T21:25:48.963Z,11.60
2018-10-09T21:28:17.642Z,11.58
2018-10-09T21:30:46.083Z,11.53
2018-10-09T21:33:14.546Z,11.51
2018-10-09T21:35:42.956Z,11.46
2018-10-09T21:38:11.365Z,11.39
2018-10-09T21:40:39.849Z,11.45
2018-10-09T21:43:08.960Z,11.49
2018-10-09T21:45:37.369Z,11.51
2018-10-09T21:48:06.485Z,11.50
2018-10-09T21:50:35.548Z,11.42
2018-10-09T21:53:04.189Z,11.44
2018-10-09T21:55:32.648Z,11.43
2018-10-09T21:58:01.098Z,11.39
2018-10-09T22:00:29.706Z,11.40
2018-10-09T22:02:58.166Z,11.35
2018-10-09T22:05:26.644Z,11.31
2018-10-09T22:07:55.064Z,11.26
2018-10-09T22:10:24.120Z,11.25
2018-10-09T22:12:52.572Z,11.23
2018-10-09T22:15:21.445Z,11.19
2018-10-09T22:17:49.917Z,11.18
2018-10-09T22:20:18.352Z,11.20
2018-10-09T22:22:46.765Z,11.21
2018-10-09T22:25:15.197Z,11.21
2018-10-09T22:27:43.677Z,11.21
2018-10-09T22:30:12.153Z,11.17
2018-10-09T22:32:40.581Z,11.17
2018-10-09T22:35:09.010Z,11.13
2018-10-09T22:37:37.500Z,11.09
2018-10-09T22:40:06.023Z,11.07
2018-10-09T22:42:34.473Z,11.05
2018-10-09T22:45:02.958Z,10.97
2018-10-09T22:47:31.376Z,10.98
2018-10-09T22:49:59.837Z,10.93
2018-10-09T22:52:28.245Z,10.90
2018-10-09T22:54:57.705Z,10.88
2018-10-09T22:57:26.246Z,10.87
2018-10-09T22:59:55.402Z,10.88
2018-10-09T23:02:23.807Z,10.90
2018-10-09T23:04:52.251Z,10.91
2018-10-09T23:07:21.061Z,10.90
2018-10-09T23:09:49.500Z,10.89
2018-10-09T23:12:17.897Z,10.89
2018-10-09T23:14:46.430Z,10.80
2018-10-09T23:17:14.900Z,10.73
2018-10-09T23:19:43.364Z,10.68
2018-10-09T23:22:11.823Z,10.65
2018-10-09T23:24:40.272Z,10.63
2018-10-09T23:27:08.765Z,10.60
2018-10-09T23:29:37.813Z,10.61
2018-10-09T23:32:06.406Z,10.62
2018-10-09T23:34:34.828Z,10.65
2018-10-09T23:37:03.302Z,10.64
2018-10-09T23:39:31.865Z,10.63
2018-10-09T23:42:00.351Z,10.62
2018-10-09T23:44:28.788Z,10.59
2018-10-09T23:46:57.241Z,10.55
2018-10-09T23:49:25.731Z,10.50
2018-10-09T23:51:54.137Z,10.46
2018-10-09T23:54:22.553Z,10.47
2018-10-09T23:56:51.005Z,10.44
2018-10-09T23:59:19.486Z,10.44
